sensor_id;sensor_type;location;lat;lon;timestamp;temperature;humidity
10278;DHT22;5184;51.376;7.148;2023-09-18T00:00:56;18.40;99.90
10278;DHT22;5184;51.376;7.148;2023-09-18T00:03:24;18.40;99.90
10278;DHT22;5184;51.376;7.148;2023-09-18T00:05:51;18.40;99.90
10278;DHT22;5184;51.376;7.148;2023-09-18T00:08:17;18.40;99.90
10278;DHT22;5184;51.376;7.148;2023-09-18T00:10:49;18.40;99.90
10278;DHT22;5184;51.376;7.148;2023-09-18T00:13:15;18.40;99.90
10278;DHT22;5184;51.376;7.148;2023-09-18T00:15:42;18.40;99.90
10278;DHT22;5184;51.376;7.148;2023-09-18T00:18:08;18.40;99.90
10278;DHT22;5184;51.376;7.148;2023-09-18T00:20:35;18.30;99.90
10278;DHT22;5184;51.376;7.148;2023-09-18T00:23:01;18.30;99.90
10278;DHT22;5184;51.376;7.148;2023-09-18T00:25:28;18.30;99.90
10278;DHT22;5184;51.376;7.148;2023-09-18T00:27:55;18.30;99.90
10278;DHT22;5184;51.376;7.148;2023-09-18T00:30:22;18.20;99.90
10278;DHT22;5184;51.376;7.148;2023-09-18T00:32:49;18.20;99.90
10278;DHT22;5184;51.376;7.148;2023-09-18T00:35:15;18.20;99.90
10278;DHT22;5184;51.376;7.148;2023-09-18T00:37:42;18.20;99.90
10278;DHT22;5184;51.376;7.148;2023-09-18T00:40:09;18.20;99.90
10278;DHT22;5184;51.376;7.148;2023-09-18T00:42:36;18.20;99.90
10278;DHT22;5184;51.376;7.148;2023-09-18T00:45:03;18.20;99.90
10278;DHT22;5184;51.376;7.148;2023-09-18T00:47:30;18.20;99.90
10278;DHT22;5184;51.376;7.148;2023-09-18T00:49:56;18.20;99.90
10278;DHT22;5184;51.376;7.148;2023-09-18T00:52:24;18.20;99.90
10278;DHT22;5184;51.376;7.148;2023-09-18T00:54:51;18.20;99.90
10278;DHT22;5184;51.376;7.148;2023-09-18T00:57:18;18.20;99.90
10278;DHT22;5184;51.376;7.148;2023-09-18T00:59:45;18.10;99.90
10278;DHT22;5184;51.376;7.148;2023-09-18T01:02:12;18.10;99.90
10278;DHT22;5184;51.376;7.148;2023-09-18T01:04:38;18.10;99.90
10278;DHT22;5184;51.376;7.148;2023-09-18T01:07:06;18.10;99.90
10278;DHT22;5184;51.376;7.148;2023-09-18T01:09:33;18.10;99.90
10278;DHT22;5184;51.376;7.148;2023-09-18T01:12:03;18.00;99.90
10278;DHT22;5184;51.376;7.148;2023-09-18T01:14:33;18.00;99.90
10278;DHT22;5184;51.376;7.148;2023-09-18T01:16:59;18.00;99.90
10278;DHT22;5184;51.376;7.148;2023-09-18T01:19:35;18.00;99.90
10278;DHT22;5184;51.376;7.148;2023-09-18T01:22:01;17.90;99.90
10278;DHT22;5184;51.376;7.148;2023-09-18T01:24:27;17.90;99.90
10278;DHT22;5184;51.376;7.148;2023-09-18T01:26:55;17.80;99.90
10278;DHT22;5184;51.376;7.148;2023-09-18T01:29:22;17.80;99.90
10278;DHT22;5184;51.376;7.148;2023-09-18T01:31:49;17.80;99.90
10278;DHT22;5184;51.376;7.148;2023-09-18T01:34:16;17.80;99.90
10278;DHT22;5184;51.376;7.148;2023-09-18T01:36:43;17.70;99.90
10278;DHT22;5184;51.376;7.148;2023-09-18T01:39:09;17.70;99.90
10278;DHT22;5184;51.376;7.148;2023-09-18T01:41:35;17.60;99.90
10278;DHT22;5184;51.376;7.148;2023-09-18T01:44:02;17.70;99.90
10278;DHT22;5184;51.376;7.148;2023-09-18T01:46:30;17.60;99.90
10278;DHT22;5184;51.376;7.148;2023-09-18T01:48:57;17.60;99.90
10278;DHT22;5184;51.376;7.148;2023-09-18T01:51:23;17.60;99.90
10278;DHT22;5184;51.376;7.148;2023-09-18T01:53:50;17.60;99.90
10278;DHT22;5184;51.376;7.148;2023-09-18T01:56:16;17.60;99.90
10278;DHT22;5184;51.376;7.148;2023-09-18T01:58:43;17.60;99.90
10278;DHT22;5184;51.376;7.148;2023-09-18T02:01:09;17.70;99.90
10278;DHT22;5184;51.376;7.148;2023-09-18T02:03:37;18.00;99.90
10278;DHT22;5184;51.376;7.148;2023-09-18T02:06:03;18.00;99.90
10278;DHT22;5184;51.376;7.148;2023-09-18T02:08:30;18.20;99.90
10278;DHT22;5184;51.376;7.148;2023-09-18T02:10:57;18.40;99.90
10278;DHT22;5184;51.376;7.148;2023-09-18T02:13:23;18.50;99.90
10278;DHT22;5184;51.376;7.148;2023-09-18T02:15:50;18.90;99.90
10278;DHT22;5184;51.376;7.148;2023-09-18T02:18:17;19.50;99.90
10278;DHT22;5184;51.376;7.148;2023-09-18T02:20:44;19.50;99.90
10278;DHT22;5184;51.376;7.148;2023-09-18T02:23:10;20.00;99.90
10278;DHT22;5184;51.376;7.148;2023-09-18T02:25:37;20.40;99.90
10278;DHT22;5184;51.376;7.148;2023-09-18T02:28:04;20.80;99.90
10278;DHT22;5184;51.376;7.148;2023-09-18T02:30:31;20.80;99.90
10278;DHT22;5184;51.376;7.148;2023-09-18T02:32:58;21.00;99.90
10278;DHT22;5184;51.376;7.148;2023-09-18T02:35:24;21.10;99.90
10278;DHT22;5184;51.376;7.148;2023-09-18T02:37:51;21.10;99.90
10278;DHT22;5184;51.376;7.148;2023-09-18T02:40:17;21.30;99.90
10278;DHT22;5184;51.376;7.148;2023-09-18T02:42:44;21.40;99.90
10278;DHT22;5184;51.376;7.148;2023-09-18T02:45:11;21.50;99.90
10278;DHT22;5184;51.376;7.148;2023-09-18T02:47:37;21.50;99.90
10278;DHT22;5184;51.376;7.148;2023-09-18T02:50:05;21.40;99.90
10278;DHT22;5184;51.376;7.148;2023-09-18T02:52:32;21.50;99.90
10278;DHT22;5184;51.376;7.148;2023-09-18T02:54:58;21.50;99.90
10278;DHT22;5184;51.376;7.148;2023-09-18T02:57:25;21.50;99.90
10278;DHT22;5184;51.376;7.148;2023-09-18T02:59:51;21.50;99.90
10278;DHT22;5184;51.376;7.148;2023-09-18T03:02:19;21.50;99.90
10278;DHT22;5184;51.376;7.148;2023-09-18T03:04:46;21.60;99.90
10278;DHT22;5184;51.376;7.148;2023-09-18T03:07:14;21.60;99.90
10278;DHT22;5184;51.376;7.148;2023-09-18T03:09:41;21.60;99.90
10278;DHT22;5184;51.376;7.148;2023-09-18T03:12:08;21.70;99.90
10278;DHT22;5184;51.376;7.148;2023-09-18T03:14:34;21.70;99.90
10278;DHT22;5184;51.376;7.148;2023-09-18T03:17:01;21.80;99.90
10278;DHT22;5184;51.376;7.148;2023-09-18T03:19:28;21.80;99.90
10278;DHT22;5184;51.376;7.148;2023-09-18T03:21:55;21.80;99.90
10278;DHT22;5184;51.376;7.148;2023-09-18T03:24:21;21.90;99.90
10278;DHT22;5184;51.376;7.148;2023-09-18T03:26:48;21.90;99.90
10278;DHT22;5184;51.376;7.148;2023-09-18T03:29:15;21.80;99.90
10278;DHT22;5184;51.376;7.148;2023-09-18T03:31:43;21.90;99.90
10278;DHT22;5184;51.376;7.148;2023-09-18T03:34:09;21.90;99.90
10278;DHT22;5184;51.376;7.148;2023-09-18T03:36:36;21.90;99.90
10278;DHT22;5184;51.376;7.148;2023-09-18T03:39:03;22.00;99.90
10278;DHT22;5184;51.376;7.148;2023-09-18T03:41:29;21.90;99.90
10278;DHT22;5184;51.376;7.148;2023-09-18T03:43:56;21.80;99.90
10278;DHT22;5184;51.376;7.148;2023-09-18T03:46:23;21.80;99.90
10278;DHT22;5184;51.376;7.148;2023-09-18T03:48:49;21.80;99.90
10278;DHT22;5184;51.376;7.148;2023-09-18T03:51:16;21.70;99.90
10278;DHT22;5184;51.376;7.148;2023-09-18T03:53:43;21.70;99.90
10278;DHT22;5184;51.376;7.148;2023-09-18T03:56:11;21.70;99.90
10278;DHT22;5184;51.376;7.148;2023-09-18T03:58:37;21.70;99.90
10278;DHT22;5184;51.376;7.148;2023-09-18T04:01:04;21.60;99.90
10278;DHT22;5184;51.376;7.148;2023-09-18T04:03:31;21.60;99.90
10278;DHT22;5184;51.376;7.148;2023-09-18T04:05:57;21.50;99.90
10278;DHT22;5184;51.376;7.148;2023-09-18T04:08:24;21.30;99.90
10278;DHT22;5184;51.376;7.148;2023-09-18T04:10:52;21.20;99.90
10278;DHT22;5184;51.376;7.148;2023-09-18T04:13:19;21.10;99.90
10278;DHT22;5184;51.376;7.148;2023-09-18T04:15:46;21.10;99.90
10278;DHT22;5184;51.376;7.148;2023-09-18T04:18:12;21.00;99.90
10278;DHT22;5184;51.376;7.148;2023-09-18T04:20:40;21.00;99.90
10278;DHT22;5184;51.376;7.148;2023-09-18T04:23:23;20.90;99.90
10278;DHT22;5184;51.376;7.148;2023-09-18T04:25:50;20.90;99.90
10278;DHT22;5184;51.376;7.148;2023-09-18T04:28:16;20.90;99.90
10278;DHT22;5184;51.376;7.148;2023-09-18T04:30:43;20.90;99.90
10278;DHT22;5184;51.376;7.148;2023-09-18T04:33:11;20.80;99.90
10278;DHT22;5184;51.376;7.148;2023-09-18T04:35:38;20.80;99.90
10278;DHT22;5184;51.376;7.148;2023-09-18T04:38:05;20.80;99.90
10278;DHT22;5184;51.376;7.148;2023-09-18T04:40:31;20.80;99.90
10278;DHT22;5184;51.376;7.148;2023-09-18T04:42:58;20.70;99.90
10278;DHT22;5184;51.376;7.148;2023-09-18T04:45:24;20.70;99.90
10278;DHT22;5184;51.376;7.148;2023-09-18T04:47:52;20.60;99.90
10278;DHT22;5184;51.376;7.148;2023-09-18T04:50:18;20.60;99.90
10278;DHT22;5184;51.376;7.148;2023-09-18T04:52:44;20.70;99.90
10278;DHT22;5184;51.376;7.148;2023-09-18T04:55:12;20.60;99.90
10278;DHT22;5184;51.376;7.148;2023-09-18T04:57:38;20.60;99.90
10278;DHT22;5184;51.376;7.148;2023-09-18T05:00:05;20.50;99.90
10278;DHT22;5184;51.376;7.148;2023-09-18T05:02:32;20.50;99.90
10278;DHT22;5184;51.376;7.148;2023-09-18T05:04:59;20.50;99.90
10278;DHT22;5184;51.376;7.148;2023-09-18T05:07:26;20.50;99.90
10278;DHT22;5184;51.376;7.148;2023-09-18T05:09:54;20.50;99.90
10278;DHT22;5184;51.376;7.148;2023-09-18T05:12:20;20.50;99.90
10278;DHT22;5184;51.376;7.148;2023-09-18T05:14:47;20.50;99.90
10278;DHT22;5184;51.376;7.148;2023-09-18T05:17:15;20.50;99.90
10278;DHT22;5184;51.376;7.148;2023-09-18T05:19:42;20.40;99.90
10278;DHT22;5184;51.376;7.148;2023-09-18T05:22:08;20.40;99.90
10278;DHT22;5184;51.376;7.148;2023-09-18T05:24:37;20.40;99.90
10278;DHT22;5184;51.376;7.148;2023-09-18T05:27:03;20.40;99.90
10278;DHT22;5184;51.376;7.148;2023-09-18T05:29:29;20.30;99.90
10278;DHT22;5184;51.376;7.148;2023-09-18T05:31:56;20.30;99.90
10278;DHT22;5184;51.376;7.148;2023-09-18T05:34:23;20.20;99.90
10278;DHT22;5184;51.376;7.148;2023-09-18T05:36:51;20.20;99.90
10278;DHT22;5184;51.376;7.148;2023-09-18T05:39:17;20.20;99.90
10278;DHT22;5184;51.376;7.148;2023-09-18T05:41:45;20.20;99.90
10278;DHT22;5184;51.376;7.148;2023-09-18T05:44:11;20.20;99.90
10278;DHT22;5184;51.376;7.148;2023-09-18T05:46:38;20.20;99.90
10278;DHT22;5184;51.376;7.148;2023-09-18T05:49:05;20.10;99.90
10278;DHT22;5184;51.376;7.148;2023-09-18T05:51:33;20.20;99.90
10278;DHT22;5184;51.376;7.148;2023-09-18T05:54:00;20.20;99.90
10278;DHT22;5184;51.376;7.148;2023-09-18T05:56:26;20.20;99.90
10278;DHT22;5184;51.376;7.148;2023-09-18T05:58:53;20.20;99.90
10278;DHT22;5184;51.376;7.148;2023-09-18T06:01:20;20.20;99.90
10278;DHT22;5184;51.376;7.148;2023-09-18T06:03:47;20.20;99.90
10278;DHT22;5184;51.376;7.148;2023-09-18T06:06:14;20.20;99.90
10278;DHT22;5184;51.376;7.148;2023-09-18T06:08:42;20.20;99.90
10278;DHT22;5184;51.376;7.148;2023-09-18T06:11:09;20.20;99.90
10278;DHT22;5184;51.376;7.148;2023-09-18T06:13:36;20.20;99.90
10278;DHT22;5184;51.376;7.148;2023-09-18T06:16:04;20.20;99.90
10278;DHT22;5184;51.376;7.148;2023-09-18T06:18:30;20.20;99.90
10278;DHT22;5184;51.376;7.148;2023-09-18T06:20:56;20.20;99.90
10278;DHT22;5184;51.376;7.148;2023-09-18T06:23:23;20.10;99.90
10278;DHT22;5184;51.376;7.148;2023-09-18T06:25:51;20.10;99.90
10278;DHT22;5184;51.376;7.148;2023-09-18T06:28:17;20.10;99.90
10278;DHT22;5184;51.376;7.148;2023-09-18T06:30:45;20.10;99.90
10278;DHT22;5184;51.376;7.148;2023-09-18T06:33:12;20.10;99.90
10278;DHT22;5184;51.376;7.148;2023-09-18T06:35:39;20.10;99.90
10278;DHT22;5184;51.376;7.148;2023-09-18T06:38:06;20.10;99.90
10278;DHT22;5184;51.376;7.148;2023-09-18T06:40:32;20.10;99.90
10278;DHT22;5184;51.376;7.148;2023-09-18T06:42:59;20.20;99.90
10278;DHT22;5184;51.376;7.148;2023-09-18T06:45:26;20.20;99.90
10278;DHT22;5184;51.376;7.148;2023-09-18T06:47:52;20.20;99.90
10278;DHT22;5184;51.376;7.148;2023-09-18T06:50:20;20.20;99.90
10278;DHT22;5184;51.376;7.148;2023-09-18T06:52:47;20.20;99.90
10278;DHT22;5184;51.376;7.148;2023-09-18T06:55:14;20.20;99.90
10278;DHT22;5184;51.376;7.148;2023-09-18T06:57:40;20.20;99.90
10278;DHT22;5184;51.376;7.148;2023-09-18T07:00:07;20.20;99.90
10278;DHT22;5184;51.376;7.148;2023-09-18T07:02:34;20.30;99.90
10278;DHT22;5184;51.376;7.148;2023-09-18T07:05:01;20.20;99.90
10278;DHT22;5184;51.376;7.148;2023-09-18T07:07:27;20.30;99.90
10278;DHT22;5184;51.376;7.148;2023-09-18T07:09:54;20.30;99.90
10278;DHT22;5184;51.376;7.148;2023-09-18T07:12:22;20.30;99.90
10278;DHT22;5184;51.376;7.148;2023-09-18T07:14:48;20.30;99.90
10278;DHT22;5184;51.376;7.148;2023-09-18T07:17:15;20.30;99.90
10278;DHT22;5184;51.376;7.148;2023-09-18T07:19:42;20.30;99.90
10278;DHT22;5184;51.376;7.148;2023-09-18T07:22:08;20.30;99.90
10278;DHT22;5184;51.376;7.148;2023-09-18T07:24:35;20.40;99.90
10278;DHT22;5184;51.376;7.148;2023-09-18T07:27:01;20.50;99.90
10278;DHT22;5184;51.376;7.148;2023-09-18T07:29:29;20.50;99.90
10278;DHT22;5184;51.376;7.148;2023-09-18T07:31:56;20.50;99.90
10278;DHT22;5184;51.376;7.148;2023-09-18T07:34:24;20.60;99.90
10278;DHT22;5184;51.376;7.148;2023-09-18T07:36:50;20.60;99.90
10278;DHT22;5184;51.376;7.148;2023-09-18T07:39:17;20.70;99.90
10278;DHT22;5184;51.376;7.148;2023-09-18T07:41:43;20.70;99.90
10278;DHT22;5184;51.376;7.148;2023-09-18T07:44:10;20.80;99.90
10278;DHT22;5184;51.376;7.148;2023-09-18T07:46:36;20.80;99.90
10278;DHT22;5184;51.376;7.148;2023-09-18T07:49:03;20.80;99.90
10278;DHT22;5184;51.376;7.148;2023-09-18T07:51:30;20.80;99.90
10278;DHT22;5184;51.376;7.148;2023-09-18T07:53:56;20.90;99.90
10278;DHT22;5184;51.376;7.148;2023-09-18T07:56:24;20.90;99.90
10278;DHT22;5184;51.376;7.148;2023-09-18T07:58:51;20.90;99.90
10278;DHT22;5184;51.376;7.148;2023-09-18T08:01:18;20.80;99.90
10278;DHT22;5184;51.376;7.148;2023-09-18T08:03:45;20.80;99.90
10278;DHT22;5184;51.376;7.148;2023-09-18T08:06:12;20.80;99.90
10278;DHT22;5184;51.376;7.148;2023-09-18T08:08:38;20.80;99.90
10278;DHT22;5184;51.376;7.148;2023-09-18T08:11:07;20.80;99.90
10278;DHT22;5184;51.376;7.148;2023-09-18T08:13:34;20.80;99.90
10278;DHT22;5184;51.376;7.148;2023-09-18T08:16:02;20.80;99.90
10278;DHT22;5184;51.376;7.148;2023-09-18T08:18:28;20.80;99.90
10278;DHT22;5184;51.376;7.148;2023-09-18T08:20:54;20.80;99.90
10278;DHT22;5184;51.376;7.148;2023-09-18T08:23:21;20.80;99.90
10278;DHT22;5184;51.376;7.148;2023-09-18T08:25:47;20.80;99.90
10278;DHT22;5184;51.376;7.148;2023-09-18T08:28:14;20.80;99.90
10278;DHT22;5184;51.376;7.148;2023-09-18T08:30:41;20.70;99.90
10278;DHT22;5184;51.376;7.148;2023-09-18T08:33:07;20.70;99.90
10278;DHT22;5184;51.376;7.148;2023-09-18T08:35:34;20.70;99.90
10278;DHT22;5184;51.376;7.148;2023-09-18T08:38:00;20.80;99.90
10278;DHT22;5184;51.376;7.148;2023-09-18T08:40:27;20.80;99.90
10278;DHT22;5184;51.376;7.148;2023-09-18T08:42:55;20.80;99.90
10278;DHT22;5184;51.376;7.148;2023-09-18T08:45:31;20.90;99.90
10278;DHT22;5184;51.376;7.148;2023-09-18T08:47:50;21.00;99.90
10278;DHT22;5184;51.376;7.148;2023-09-18T08:50:17;21.00;99.90
10278;DHT22;5184;51.376;7.148;2023-09-18T08:52:45;21.00;99.90
10278;DHT22;5184;51.376;7.148;2023-09-18T08:55:11;21.00;99.90
10278;DHT22;5184;51.376;7.148;2023-09-18T08:57:38;21.00;99.90
10278;DHT22;5184;51.376;7.148;2023-09-18T09:00:05;20.90;99.90
10278;DHT22;5184;51.376;7.148;2023-09-18T09:02:33;21.10;99.90
10278;DHT22;5184;51.376;7.148;2023-09-18T09:05:00;21.10;99.90
10278;DHT22;5184;51.376;7.148;2023-09-18T09:07:26;21.10;99.90
10278;DHT22;5184;51.376;7.148;2023-09-18T09:09:53;21.10;99.90
10278;DHT22;5184;51.376;7.148;2023-09-18T09:15:02;21.20;99.90
10278;DHT22;5184;51.376;7.148;2023-09-18T09:17:28;21.20;99.90
10278;DHT22;5184;51.376;7.148;2023-09-18T09:19:55;21.30;99.90
10278;DHT22;5184;51.376;7.148;2023-09-18T09:22:21;21.30;99.90
10278;DHT22;5184;51.376;7.148;2023-09-18T09:24:48;21.40;99.90
10278;DHT22;5184;51.376;7.148;2023-09-18T09:27:15;21.50;99.90
10278;DHT22;5184;51.376;7.148;2023-09-18T09:29:42;21.50;99.90
10278;DHT22;5184;51.376;7.148;2023-09-18T09:32:19;21.50;99.90
10278;DHT22;5184;51.376;7.148;2023-09-18T09:34:45;21.50;99.90
10278;DHT22;5184;51.376;7.148;2023-09-18T09:37:12;21.40;99.90
10278;DHT22;5184;51.376;7.148;2023-09-18T09:39:47;21.40;99.90
10278;DHT22;5184;51.376;7.148;2023-09-18T09:42:13;21.50;99.90
10278;DHT22;5184;51.376;7.148;2023-09-18T09:44:39;21.40;99.90
10278;DHT22;5184;51.376;7.148;2023-09-18T09:47:06;21.50;99.90
10278;DHT22;5184;51.376;7.148;2023-09-18T09:49:44;21.50;99.90
10278;DHT22;5184;51.376;7.148;2023-09-18T09:52:00;21.50;99.90
10278;DHT22;5184;51.376;7.148;2023-09-18T09:54:32;21.70;99.90
10278;DHT22;5184;51.376;7.148;2023-09-18T09:56:58;21.70;99.90
10278;DHT22;5184;51.376;7.148;2023-09-18T09:59:24;21.70;99.90
10278;DHT22;5184;51.376;7.148;2023-09-18T10:01:51;21.70;99.90
10278;DHT22;5184;51.376;7.148;2023-09-18T10:04:18;21.80;99.90
10278;DHT22;5184;51.376;7.148;2023-09-18T10:06:45;21.80;99.90
10278;DHT22;5184;51.376;7.148;2023-09-18T10:09:12;21.80;99.90
10278;DHT22;5184;51.376;7.148;2023-09-18T10:11:41;21.70;99.90
10278;DHT22;5184;51.376;7.148;2023-09-18T10:14:28;21.70;99.90
10278;DHT22;5184;51.376;7.148;2023-09-18T10:16:51;21.80;99.90
10278;DHT22;5184;51.376;7.148;2023-09-18T10:19:28;22.00;99.90
10278;DHT22;5184;51.376;7.148;2023-09-18T10:22:00;22.00;99.90
10278;DHT22;5184;51.376;7.148;2023-09-18T10:24:24;22.00;99.90
10278;DHT22;5184;51.376;7.148;2023-09-18T10:26:55;22.00;99.90
10278;DHT22;5184;51.376;7.148;2023-09-18T10:29:22;22.00;99.90
10278;DHT22;5184;51.376;7.148;2023-09-18T10:31:48;22.00;99.90
10278;DHT22;5184;51.376;7.148;2023-09-18T10:34:15;22.10;99.90
10278;DHT22;5184;51.376;7.148;2023-09-18T10:36:43;22.20;99.90
10278;DHT22;5184;51.376;7.148;2023-09-18T10:39:09;22.20;99.90
10278;DHT22;5184;51.376;7.148;2023-09-18T10:41:36;22.20;99.90
10278;DHT22;5184;51.376;7.148;2023-09-18T10:44:02;22.10;99.90
10278;DHT22;5184;51.376;7.148;2023-09-18T10:46:30;22.30;99.90
10278;DHT22;5184;51.376;7.148;2023-09-18T10:48:58;22.50;99.90
10278;DHT22;5184;51.376;7.148;2023-09-18T10:51:24;22.30;99.90
10278;DHT22;5184;51.376;7.148;2023-09-18T10:53:50;22.40;99.90
10278;DHT22;5184;51.376;7.148;2023-09-18T10:56:17;22.50;99.90
10278;DHT22;5184;51.376;7.148;2023-09-18T10:58:43;22.50;99.90
10278;DHT22;5184;51.376;7.148;2023-09-18T11:01:12;22.50;99.90
10278;DHT22;5184;51.376;7.148;2023-09-18T11:03:39;22.50;99.90
10278;DHT22;5184;51.376;7.148;2023-09-18T11:06:07;22.50;99.90
10278;DHT22;5184;51.376;7.148;2023-09-18T11:08:34;22.60;99.90
10278;DHT22;5184;51.376;7.148;2023-09-18T11:11:02;22.70;99.90
10278;DHT22;5184;51.376;7.148;2023-09-18T11:13:31;22.70;99.90
10278;DHT22;5184;51.376;7.148;2023-09-18T11:16:00;22.80;99.90
10278;DHT22;5184;51.376;7.148;2023-09-18T11:18:32;23.00;99.90
10278;DHT22;5184;51.376;7.148;2023-09-18T11:23:35;23.20;76.40
10278;DHT22;5184;51.376;7.148;2023-09-18T11:26:03;23.30;58.60
10278;DHT22;5184;51.376;7.148;2023-09-18T11:28:28;23.30;56.40
10278;DHT22;5184;51.376;7.148;2023-09-18T11:30:56;23.40;44.80
10278;DHT22;5184;51.376;7.148;2023-09-18T11:33:31;23.40;54.80
10278;DHT22;5184;51.376;7.148;2023-09-18T11:36:04;23.50;4.10
10278;DHT22;5184;51.376;7.148;2023-09-18T11:38:30;23.60;1.00
10278;DHT22;5184;51.376;7.148;2023-09-18T11:40:56;23.70;1.00
10278;DHT22;5184;51.376;7.148;2023-09-18T11:43:24;23.60;1.00
10278;DHT22;5184;51.376;7.148;2023-09-18T11:45:49;23.60;1.00
10278;DHT22;5184;51.376;7.148;2023-09-18T11:48:16;23.50;1.00
10278;DHT22;5184;51.376;7.148;2023-09-18T11:50:43;23.50;1.00
10278;DHT22;5184;51.376;7.148;2023-09-18T11:53:12;23.60;1.00
10278;DHT22;5184;51.376;7.148;2023-09-18T11:55:39;23.60;1.00
10278;DHT22;5184;51.376;7.148;2023-09-18T11:58:06;23.70;1.00
10278;DHT22;5184;51.376;7.148;2023-09-18T12:00:32;23.70;1.00
10278;DHT22;5184;51.376;7.148;2023-09-18T12:03:08;23.70;3.00
10278;DHT22;5184;51.376;7.148;2023-09-18T12:05:26;23.90;1.00
10278;DHT22;5184;51.376;7.148;2023-09-18T12:07:52;24.00;1.00
10278;DHT22;5184;51.376;7.148;2023-09-18T12:10:19;24.00;1.00
10278;DHT22;5184;51.376;7.148;2023-09-18T12:12:46;24.00;1.00
10278;DHT22;5184;51.376;7.148;2023-09-18T12:15:12;24.10;1.00
10278;DHT22;5184;51.376;7.148;2023-09-18T12:17:38;24.10;1.00
10278;DHT22;5184;51.376;7.148;2023-09-18T12:20:06;23.80;1.00
10278;DHT22;5184;51.376;7.148;2023-09-18T12:22:33;23.80;1.00
10278;DHT22;5184;51.376;7.148;2023-09-18T12:25:11;23.70;1.00
10278;DHT22;5184;51.376;7.148;2023-09-18T12:27:38;23.60;1.00
10278;DHT22;5184;51.376;7.148;2023-09-18T12:30:05;23.60;1.00
10278;DHT22;5184;51.376;7.148;2023-09-18T12:32:32;23.70;1.00
10278;DHT22;5184;51.376;7.148;2023-09-18T12:34:58;24.00;1.00
10278;DHT22;5184;51.376;7.148;2023-09-18T12:37:26;24.20;1.00
10278;DHT22;5184;51.376;7.148;2023-09-18T12:39:53;24.30;1.00
10278;DHT22;5184;51.376;7.148;2023-09-18T12:42:20;24.40;1.00
10278;DHT22;5184;51.376;7.148;2023-09-18T12:44:48;24.50;1.00
10278;DHT22;5184;51.376;7.148;2023-09-18T12:47:15;24.60;1.00
10278;DHT22;5184;51.376;7.148;2023-09-18T12:49:42;24.60;1.00
10278;DHT22;5184;51.376;7.148;2023-09-18T12:52:08;24.70;1.00
10278;DHT22;5184;51.376;7.148;2023-09-18T12:54:39;24.80;1.00
10278;DHT22;5184;51.376;7.148;2023-09-18T12:57:05;24.80;1.00
10278;DHT22;5184;51.376;7.148;2023-09-18T12:59:32;24.60;1.00
10278;DHT22;5184;51.376;7.148;2023-09-18T13:01:58;24.50;1.00
10278;DHT22;5184;51.376;7.148;2023-09-18T13:04:26;24.30;1.00
10278;DHT22;5184;51.376;7.148;2023-09-18T13:07:02;24.30;1.00
10278;DHT22;5184;51.376;7.148;2023-09-18T13:09:28;24.30;1.00
10278;DHT22;5184;51.376;7.148;2023-09-18T13:11:56;24.50;1.00
10278;DHT22;5184;51.376;7.148;2023-09-18T13:14:23;24.60;1.00
10278;DHT22;5184;51.376;7.148;2023-09-18T13:16:49;24.50;1.00
10278;DHT22;5184;51.376;7.148;2023-09-18T13:19:17;24.50;1.00
10278;DHT22;5184;51.376;7.148;2023-09-18T13:21:46;24.40;1.00
10278;DHT22;5184;51.376;7.148;2023-09-18T13:24:32;24.50;1.00
10278;DHT22;5184;51.376;7.148;2023-09-18T13:26:59;24.50;1.00
10278;DHT22;5184;51.376;7.148;2023-09-18T13:29:26;24.90;1.00
10278;DHT22;5184;51.376;7.148;2023-09-18T13:31:53;24.80;1.00
10278;DHT22;5184;51.376;7.148;2023-09-18T13:34:21;24.70;1.00
10278;DHT22;5184;51.376;7.148;2023-09-18T13:36:48;24.70;1.00
10278;DHT22;5184;51.376;7.148;2023-09-18T13:39:15;24.90;99.90
10278;DHT22;5184;51.376;7.148;2023-09-18T13:41:43;24.90;1.00
10278;DHT22;5184;51.376;7.148;2023-09-18T13:44:10;25.00;1.00
10278;DHT22;5184;51.376;7.148;2023-09-18T13:46:37;25.00;1.00
10278;DHT22;5184;51.376;7.148;2023-09-18T13:49:03;25.10;1.00
10278;DHT22;5184;51.376;7.148;2023-09-18T13:51:31;25.20;1.00
10278;DHT22;5184;51.376;7.148;2023-09-18T13:53:57;25.40;1.00
10278;DHT22;5184;51.376;7.148;2023-09-18T13:56:23;25.30;1.00
10278;DHT22;5184;51.376;7.148;2023-09-18T13:58:51;25.30;1.00
10278;DHT22;5184;51.376;7.148;2023-09-18T14:01:18;25.10;1.00
10278;DHT22;5184;51.376;7.148;2023-09-18T14:03:45;24.90;1.00
10278;DHT22;5184;51.376;7.148;2023-09-18T14:06:13;24.80;1.00
10278;DHT22;5184;51.376;7.148;2023-09-18T14:08:40;24.70;1.00
10278;DHT22;5184;51.376;7.148;2023-09-18T14:11:08;25.00;1.00
10278;DHT22;5184;51.376;7.148;2023-09-18T14:13:35;25.00;1.00
10278;DHT22;5184;51.376;7.148;2023-09-18T14:16:01;25.00;1.00
10278;DHT22;5184;51.376;7.148;2023-09-18T14:18:28;25.00;1.00
10278;DHT22;5184;51.376;7.148;2023-09-18T14:20:55;24.80;1.00
10278;DHT22;5184;51.376;7.148;2023-09-18T14:23:21;25.00;99.90
10278;DHT22;5184;51.376;7.148;2023-09-18T14:25:48;25.10;99.90
10278;DHT22;5184;51.376;7.148;2023-09-18T14:28:14;25.30;99.90
10278;DHT22;5184;51.376;7.148;2023-09-18T14:30:42;25.60;99.90
10278;DHT22;5184;51.376;7.148;2023-09-18T14:33:09;25.50;99.90
10278;DHT22;5184;51.376;7.148;2023-09-18T14:35:36;25.50;99.90
10278;DHT22;5184;51.376;7.148;2023-09-18T14:38:03;25.40;99.90
10278;DHT22;5184;51.376;7.148;2023-09-18T14:40:30;25.50;99.90
10278;DHT22;5184;51.376;7.148;2023-09-18T14:42:56;25.50;99.90
10278;DHT22;5184;51.376;7.148;2023-09-18T14:45:23;25.40;99.90
10278;DHT22;5184;51.376;7.148;2023-09-18T14:47:50;25.50;99.90
10278;DHT22;5184;51.376;7.148;2023-09-18T14:50:18;25.50;99.90
10278;DHT22;5184;51.376;7.148;2023-09-18T14:52:45;25.50;99.90
10278;DHT22;5184;51.376;7.148;2023-09-18T14:55:11;25.50;99.90
10278;DHT22;5184;51.376;7.148;2023-09-18T14:57:38;25.80;99.90
10278;DHT22;5184;51.376;7.148;2023-09-18T15:00:05;26.20;99.90
10278;DHT22;5184;51.376;7.148;2023-09-18T15:02:32;26.20;99.90
10278;DHT22;5184;51.376;7.148;2023-09-18T15:04:59;26.20;99.90
10278;DHT22;5184;51.376;7.148;2023-09-18T15:07:26;26.10;99.90
10278;DHT22;5184;51.376;7.148;2023-09-18T15:09:53;25.90;99.90
10278;DHT22;5184;51.376;7.148;2023-09-18T15:12:19;25.90;99.90
10278;DHT22;5184;51.376;7.148;2023-09-18T15:14:46;26.00;99.90
10278;DHT22;5184;51.376;7.148;2023-09-18T15:17:13;26.00;99.90
10278;DHT22;5184;51.376;7.148;2023-09-18T15:19:39;25.90;99.90
10278;DHT22;5184;51.376;7.148;2023-09-18T15:22:06;26.30;99.90
10278;DHT22;5184;51.376;7.148;2023-09-18T15:24:33;26.40;99.90
10278;DHT22;5184;51.376;7.148;2023-09-18T15:27:01;26.60;99.90
10278;DHT22;5184;51.376;7.148;2023-09-18T15:29:27;26.60;99.90
10278;DHT22;5184;51.376;7.148;2023-09-18T15:31:54;26.70;99.90
10278;DHT22;5184;51.376;7.148;2023-09-18T15:34:20;26.70;99.90
10278;DHT22;5184;51.376;7.148;2023-09-18T15:36:47;26.60;99.90
10278;DHT22;5184;51.376;7.148;2023-09-18T15:39:14;26.30;99.90
10278;DHT22;5184;51.376;7.148;2023-09-18T15:41:41;26.00;99.90
10278;DHT22;5184;51.376;7.148;2023-09-18T15:44:08;25.90;99.90
10278;DHT22;5184;51.376;7.148;2023-09-18T15:46:34;26.00;99.90
10278;DHT22;5184;51.376;7.148;2023-09-18T15:49:02;25.80;99.90
10278;DHT22;5184;51.376;7.148;2023-09-18T15:51:29;25.90;99.90
10278;DHT22;5184;51.376;7.148;2023-09-18T15:53:56;25.80;99.90